x

Venice, Fl (venf1) Weather Station

8:00am - Tue 30th May 2017 All times are EDT. -4 hours from GMT.

  • Wind
    2mph, 5mph gusts
  • Sea Temp 83°f
  • Air Temp 78°f
  • Sea Pressure 1019.7mb
  • Venice, Fl
  • Venice, Fl

More Historic Weather Station data

Upgrade to MSW Pro to gain access to the past 30 days of data for over 8000 Wavebouys and Weather Stations around the globe.

Join Pro

Comparision Forecast

View Surf forecast
   
Tue 05/30 8:00am 2 5 mph 1019.7mb 83f 78f
7:00am 5 6 mph 1019.3mb 83f 77f
6:00am 3 5 mph 1018.4mb 83f 78f
5:00am 3 5 mph 1018.3mb 83f 78f
4:00am 6 7 mph 1017.9mb 83f 79f
3:00am  -  0 mph 1018.3mb 83f 80f
2:00am 5 5 mph 1018.4mb 83f 81f
1:00am 2 2 mph 1018.6mb 83f 81f
12:00am 3 3 mph 1018.7mb 83f 81f
Mon 05/29 11:00pm 8 8 mph 1018.4mb 83f 83f
10:00pm 7 8 mph 1017.9mb 83f 83f
9:00pm 10 11 mph 1017.5mb 84f 83f
8:00pm 10 11 mph 1017.3mb 85f 82f
7:00pm 11 13 mph 1016.5mb 84f 83f
6:00pm 11 13 mph 1016.6mb 84f 82f
5:00pm 11 13 mph 1017mb 84f 82f
4:00pm 13 14 mph 1017.6mb 84f 82f
3:00pm 16 17 mph 1018.3mb 84f 82f
2:00pm 14 15 mph 1018.8mb 84f 82f
1:00pm 13 14 mph 1018.9mb 84f 82f
12:00pm 9 10 mph 1018.8mb 83f 82f
11:00am 5 5 mph 1018.5mb 83f 83f
10:00am 2 3 mph 1018.4mb 82f 82f
9:00am 3 6 mph 1018.1mb 82f 81f
8:00am 3 5 mph 1017.6mb 82f 78f
7:00am 9 10 mph 1017.2mb 82f 80f
6:00am 11 13 mph 1016.5mb 82f 80f
5:00am 10 10 mph 1015.7mb 82f 80f
4:00am 8 8 mph 1015.1mb 82f 80f
3:00am 7 8 mph 1015.2mb 82f 80f
2:00am 8 8 mph 1015.7mb 83f 80f
1:00am 7 7 mph 1016.3mb 83f 80f
12:00am 9 10 mph 1017mb 83f 80f
Sun 05/28 11:00pm 8 8 mph 1017.1mb 83f 80f
10:00pm 8 9 mph 1016.8mb 83f 80f
9:00pm 9 10 mph 1016.4mb 84f 80f
8:00pm 11 13 mph 1016.5mb 84f 80f
7:00pm 15 16 mph 1016.5mb 85f 81f
6:00pm 17 17 mph 1016.8mb 84f 81f
5:00pm 18 21 mph 1017.1mb 83f 81f
4:00pm 17 18 mph 1017.3mb 83f 81f
3:00pm 14 15 mph 1017.7mb 83f 81f
2:00pm 15 17 mph 1018.2mb 83f 81f
1:00pm 13 14 mph 1018.2mb 83f 81f
12:00pm 11 13 mph 1018.4mb 83f 81f
11:00am 11 13 mph 1018mb 82f 81f
10:00am 11 11 mph 1017.3mb 82f 80f
9:00am 5 6 mph 1016.8mb 81f 80f
8:00am 7 9 mph 1016.1mb 81f 80f
7:00am 6 8 mph 1015.4mb 81f 80f
6:00am 7 8 mph 1014.8mb 82f 79f
5:00am 8 9 mph 1014.5mb 82f 79f
4:00am 9 10 mph 1015mb 82f 79f
3:00am 9 11 mph 1015mb 82f 79f
2:00am 8 9 mph 1015.7mb 82f 79f
1:00am 9 11 mph 1016.3mb 82f 79f
12:00am 8 8 mph 1016.8mb 82f 79f
Sat 05/27 11:00pm 10 11 mph 1017.4mb 82f 79f
10:00pm 14 15 mph 1017.4mb 82f 80f
9:00pm 14 15 mph 1017.3mb 83f 80f
8:00pm 15 16 mph 1017.3mb 84f 80f
7:00pm 11 14 mph 1017.2mb 84f 80f
6:00pm 9 10 mph 1017.4mb 85f 80f
5:00pm 11 13 mph 1017.4mb 83f 80f
4:00pm 11 13 mph 1017.9mb 83f 79f
3:00pm 11 13 mph 1018.4mb 83f 79f
2:00pm 10 11 mph 1018.7mb 83f 79f
1:00pm 8 9 mph 1018.9mb 82f 79f
12:00pm 6 7 mph 1019.1mb 82f 79f
11:00am 5 5 mph 1018.9mb 82f 79f
10:00am 6 7 mph 1018.8mb 81f 77f
9:00am 7 8 mph 1018.7mb 81f 74f
8:00am 7 9 mph 1018.1mb 81f 70f
7:00am 8 9 mph 1017.6mb 81f 67f
6:00am 9 10 mph 1017.1mb 81f 67f
5:00am 7 8 mph 1016.9mb 81f 68f
4:00am 10 11 mph 1016.7mb 81f 78f
3:00am 10 11 mph 1017.1mb 81f 78f
2:00am 8 9 mph 1017.3mb 82f 78f
1:00am 5 5 mph 1017.8mb 82f 75f
12:00am 5 6 mph 1017.9mb 82f 76f
Fri 05/26 11:00pm 9 10 mph 1017.9mb 82f 79f
10:00pm 10 10 mph 1017.6mb 82f 80f
9:00pm 10 11 mph 1017.2mb 83f 80f
8:00pm 10 11 mph 1016.8mb 83f 80f
7:00pm 9 10 mph 1016.6mb 84f 80f
6:00pm 7 8 mph 1016.5mb 84f 81f
5:00pm 7 7 mph 1016.7mb 84f 81f
4:00pm 6 7 mph 1016.8mb 84f 81f
3:00pm 8 8 mph 1017.2mb 84f 80f
2:00pm 9 10 mph 1017.7mb 83f 80f